createdAt,value
2019-02-17T00:00:00.747Z,99.90
2019-02-17T00:02:27.059Z,99.90
2019-02-17T00:04:53.260Z,99.90
2019-02-17T00:07:19.480Z,99.90
2019-02-17T00:09:46.012Z,99.90
2019-02-17T00:12:12.312Z,99.90
2019-02-17T00:14:38.539Z,99.90
2019-02-17T00:17:05.059Z,99.90
2019-02-17T00:19:31.267Z,99.90
2019-02-17T00:21:57.590Z,99.90
2019-02-17T00:24:23.816Z,99.90
2019-02-17T00:26:50.027Z,99.90
2019-02-17T00:29:16.283Z,99.90
2019-02-17T00:31:42.519Z,99.90
2019-02-17T00:34:08.724Z,99.90
2019-02-17T00:36:34.973Z,99.90
2019-02-17T00:39:01.221Z,99.90
2019-02-17T00:41:27.560Z,99.90
2019-02-17T00:43:53.863Z,99.90
2019-02-17T00:46:20.080Z,99.90
2019-02-17T00:48:46.326Z,99.90
2019-02-17T00:51:12.500Z,99.90
2019-02-17T00:53:38.725Z,99.90
2019-02-17T00:56:04.932Z,99.90
2019-02-17T00:58:31.295Z,99.90
2019-02-17T01:00:57.557Z,99.90
2019-02-17T01:03:23.884Z,99.90
2019-02-17T01:05:50.075Z,99.90
2019-02-17T01:08:16.349Z,99.90
2019-02-17T01:10:42.551Z,99.90
2019-02-17T01:13:08.791Z,99.90
2019-02-17T01:15:35.008Z,99.90
2019-02-17T01:18:01.223Z,99.90
2019-02-17T01:20:27.546Z,99.90
2019-02-17T01:22:53.814Z,99.90
2019-02-17T01:25:20.343Z,99.90
2019-02-17T01:27:46.652Z,99.90
2019-02-17T01:30:13.374Z,99.90
2019-02-17T01:32:39.792Z,99.90
2019-02-17T01:35:06.349Z,99.90
2019-02-17T01:37:32.865Z,99.90
2019-02-17T01:39:59.059Z,99.90
2019-02-17T01:42:25.367Z,99.90
2019-02-17T01:44:53.454Z,99.90
2019-02-17T01:47:19.795Z,99.90
2019-02-17T01:49:46.055Z,99.90
2019-02-17T01:52:12.363Z,99.90
2019-02-17T01:54:38.577Z,99.90
2019-02-17T01:57:04.793Z,99.90
2019-02-17T01:59:31.099Z,99.90
2019-02-17T02:01:57.468Z,99.90
2019-02-17T02:04:23.707Z,99.90
2019-02-17T02:06:49.902Z,99.90
2019-02-17T02:09:16.108Z,99.90
2019-02-17T02:11:42.348Z,99.90
2019-02-17T02:14:08.609Z,99.90
2019-02-17T02:16:34.885Z,99.90
2019-02-17T02:19:01.176Z,99.90
2019-02-17T02:21:27.392Z,99.90
2019-02-17T02:23:53.583Z,99.90
2019-02-17T02:26:19.853Z,99.90
2019-02-17T02:28:46.062Z,99.90
2019-02-17T02:31:12.403Z,99.90
2019-02-17T02:33:38.704Z,99.90
2019-02-17T02:36:04.914Z,99.90
2019-02-17T02:38:31.120Z,99.90
2019-02-17T02:40:57.443Z,99.90
2019-02-17T02:43:23.666Z,99.90
2019-02-17T02:45:49.992Z,99.90
2019-02-17T02:48:16.191Z,99.90
2019-02-17T02:50:42.412Z,99.90
2019-02-17T02:53:08.615Z,99.90
2019-02-17T02:55:35.034Z,99.90
2019-02-17T02:58:01.218Z,99.90
2019-02-17T03:00:27.508Z,99.90
2019-02-17T03:02:53.723Z,99.90
2019-02-17T03:05:20.027Z,99.90
2019-02-17T03:07:46.262Z,99.90
2019-02-17T03:10:12.473Z,99.90
2019-02-17T03:12:38.683Z,99.90
2019-02-17T03:15:06.591Z,99.90
2019-02-17T03:17:32.890Z,99.90
2019-02-17T03:19:59.099Z,99.90
2019-02-17T03:22:25.489Z,99.90
2019-02-17T03:24:51.703Z,99.90
2019-02-17T03:27:17.911Z,99.90
2019-02-17T03:29:44.133Z,99.90
2019-02-17T03:32:10.350Z,99.90
2019-02-17T03:34:36.565Z,99.90
2019-02-17T03:37:02.880Z,99.90
2019-02-17T03:39:29.279Z,99.90
2019-02-17T03:41:55.672Z,99.90
2019-02-17T03:44:21.868Z,99.90
2019-02-17T03:46:48.070Z,99.90
2019-02-17T03:49:14.259Z,99.90
2019-02-17T03:51:40.483Z,99.90
2019-02-17T03:54:06.711Z,99.90
2019-02-17T03:56:33.026Z,99.90
2019-02-17T03:58:59.340Z,99.90
2019-02-17T04:01:25.658Z,99.90
2019-02-17T04:03:51.934Z,99.90
2019-02-17T04:06:18.136Z,99.90
2019-02-17T04:08:44.369Z,99.90
2019-02-17T04:11:10.592Z,99.90
2019-02-17T04:13:36.795Z,99.90
2019-02-17T04:16:03.002Z,99.90
2019-02-17T04:18:29.198Z,99.90
2019-02-17T04:20:55.434Z,99.90
2019-02-17T04:23:30.772Z,99.90
2019-02-17T04:25:49.719Z,99.90
2019-02-17T04:28:15.913Z,99.90
2019-02-17T04:30:42.151Z,99.90
2019-02-17T04:33:08.345Z,99.90
2019-02-17T04:35:34.555Z,99.90
2019-02-17T04:38:00.758Z,99.90
2019-02-17T04:40:26.952Z,99.90
2019-02-17T04:42:53.164Z,99.90
2019-02-17T04:45:19.363Z,99.90
2019-02-17T04:47:45.659Z,99.90
2019-02-17T04:50:12.077Z,99.90
2019-02-17T04:52:38.412Z,99.90
2019-02-17T04:55:06.136Z,99.90
2019-02-17T04:57:32.352Z,99.90
2019-02-17T04:59:58.670Z,99.90
2019-02-17T05:02:24.969Z,99.90
2019-02-17T05:04:51.154Z,99.90
2019-02-17T05:07:17.380Z,99.90
2019-02-17T05:09:43.584Z,99.90
2019-02-17T05:12:09.775Z,99.90
2019-02-17T05:14:35.980Z,99.90
2019-02-17T05:17:02.182Z,99.90
2019-02-17T05:19:28.391Z,99.90
2019-02-17T05:21:54.600Z,99.90
2019-02-17T05:24:21.008Z,99.90
2019-02-17T05:26:47.200Z,99.90
2019-02-17T05:29:13.404Z,99.90
2019-02-17T05:31:39.637Z,99.90
2019-02-17T05:34:05.859Z,99.90
2019-02-17T05:36:32.083Z,99.90
2019-02-17T05:38:58.377Z,99.90
2019-02-17T05:41:24.600Z,99.90
2019-02-17T05:43:50.814Z,99.90
2019-02-17T05:46:17.120Z,99.90
2019-02-17T05:48:43.331Z,99.90
2019-02-17T05:51:09.511Z,99.90
2019-02-17T05:53:35.744Z,99.90
2019-02-17T05:56:02.052Z,99.90
2019-02-17T05:58:28.361Z,99.90
2019-02-17T06:01:03.347Z,99.90
2019-02-17T06:03:22.692Z,99.90
2019-02-17T06:05:48.978Z,99.90
2019-02-17T06:08:15.168Z,99.90
2019-02-17T06:10:41.375Z,99.90
2019-02-17T06:13:07.600Z,99.90
2019-02-17T06:15:33.820Z,99.90
2019-02-17T06:18:00.019Z,99.90
2019-02-17T06:20:26.230Z,99.90
2019-02-17T06:22:52.479Z,99.90
2019-02-17T06:25:18.690Z,99.90
2019-02-17T06:27:44.894Z,99.90
2019-02-17T06:30:11.232Z,99.90
2019-02-17T06:32:37.430Z,99.90
2019-02-17T06:35:04.167Z,99.90
2019-02-17T06:37:30.451Z,99.90
2019-02-17T06:39:56.814Z,99.90
2019-02-17T06:42:23.183Z,99.90
2019-02-17T06:44:49.488Z,99.90
2019-02-17T06:47:17.599Z,99.90
2019-02-17T06:49:43.919Z,99.90
2019-02-17T06:52:10.142Z,99.90
2019-02-17T06:54:37.262Z,99.90
2019-02-17T06:57:05.383Z,99.90
2019-02-17T06:59:31.595Z,99.90
2019-02-17T07:01:57.967Z,99.90
2019-02-17T07:04:26.143Z,99.90
2019-02-17T07:06:54.261Z,99.90
2019-02-17T07:09:20.565Z,99.90
2019-02-17T07:11:46.800Z,99.90
2019-02-17T07:14:12.986Z,99.90
2019-02-17T07:16:39.230Z,99.90
2019-02-17T07:19:05.539Z,99.90
2019-02-17T07:21:31.757Z,99.90
2019-02-17T07:23:57.973Z,99.90
2019-02-17T07:26:24.347Z,99.90
2019-02-17T07:28:50.728Z,99.90
2019-02-17T07:31:16.951Z,99.90
2019-02-17T07:33:43.179Z,99.90
2019-02-17T07:36:09.494Z,99.90
2019-02-17T07:38:35.712Z,99.90
2019-02-17T07:41:01.911Z,99.90
2019-02-17T07:43:28.222Z,99.90
2019-02-17T07:45:54.561Z,99.90
2019-02-17T07:48:20.796Z,99.90
2019-02-17T07:50:47.011Z,99.90
2019-02-17T07:53:13.253Z,99.90
2019-02-17T07:55:39.628Z,99.90
2019-02-17T07:58:06.095Z,99.90
2019-02-17T08:00:32.415Z,99.90
2019-02-17T08:02:58.615Z,99.90
2019-02-17T08:05:24.886Z,99.90
2019-02-17T08:07:51.307Z,99.90
2019-02-17T08:10:17.749Z,99.90
2019-02-17T08:12:44.055Z,99.90
2019-02-17T08:15:10.387Z,99.90
2019-02-17T08:17:36.590Z,99.90
2019-02-17T08:20:05.306Z,99.90
2019-02-17T08:22:31.651Z,99.90
2019-02-17T08:24:57.967Z,99.90
2019-02-17T08:27:24.166Z,99.90
2019-02-17T08:29:53.437Z,99.90
2019-02-17T08:32:19.763Z,99.90
2019-02-17T08:34:48.785Z,99.90
2019-02-17T08:37:15.052Z,99.90
2019-02-17T08:39:41.263Z,99.90
2019-02-17T08:42:07.694Z,99.90
2019-02-17T08:44:33.915Z,99.90
2019-02-17T08:47:00.242Z,99.90
2019-02-17T08:49:27.628Z,99.90
2019-02-17T08:51:53.956Z,99.90
2019-02-17T08:54:20.191Z,99.90
2019-02-17T08:56:46.387Z,99.90
2019-02-17T08:59:12.638Z,99.90
2019-02-17T09:01:40.450Z,99.90
2019-02-17T09:04:06.762Z,99.90
2019-02-17T09:06:32.996Z,99.90
2019-02-17T09:08:59.202Z,99.90
2019-02-17T09:11:25.486Z,99.90
2019-02-17T09:13:51.752Z,99.90
2019-02-17T09:16:18.319Z,99.90
2019-02-17T09:18:44.573Z,99.90
2019-02-17T09:21:10.805Z,99.90
2019-02-17T09:23:37.056Z,99.90
2019-02-17T09:26:03.338Z,99.90
2019-02-17T09:28:29.561Z,99.90
2019-02-17T09:30:55.946Z,99.90
2019-02-17T09:33:22.240Z,99.90
2019-02-17T09:35:48.473Z,99.90
2019-02-17T09:38:17.058Z,99.90
2019-02-17T09:40:42.855Z,99.90
2019-02-17T09:43:09.158Z,99.90
2019-02-17T09:45:35.459Z,99.90
2019-02-17T09:48:01.831Z,99.90
2019-02-17T09:50:28.075Z,99.90
2019-02-17T09:52:54.283Z,99.90
2019-02-17T09:55:20.526Z,99.90
2019-02-17T09:57:46.940Z,97.40
2019-02-17T10:00:14.330Z,93.00
2019-02-17T10:02:40.835Z,82.60
2019-02-17T10:05:08.960Z,72.30
2019-02-17T10:07:35.151Z,64.20
2019-02-17T10:10:01.592Z,59.70
2019-02-17T10:12:27.875Z,57.00
2019-02-17T10:14:54.253Z,55.70
2019-02-17T10:17:20.475Z,53.80
2019-02-17T10:19:46.790Z,51.90
2019-02-17T10:22:13.200Z,50.50
2019-02-17T10:24:39.446Z,49.20
2019-02-17T10:27:05.796Z,47.50
2019-02-17T10:29:31.991Z,46.90
2019-02-17T10:31:58.434Z,46.20
2019-02-17T10:34:24.775Z,45.60
2019-02-17T10:36:51.092Z,45.60
2019-02-17T10:39:17.361Z,44.90
2019-02-17T10:41:43.689Z,44.70
2019-02-17T10:44:10.312Z,43.70
2019-02-17T10:46:36.531Z,43.20
2019-02-17T10:49:02.948Z,43.70
2019-02-17T10:51:29.208Z,44.20
2019-02-17T10:53:55.550Z,43.70
2019-02-17T10:56:21.890Z,43.80
2019-02-17T10:58:48.206Z,43.60
2019-02-17T11:01:14.571Z,43.60
2019-02-17T11:03:44.583Z,43.40
2019-02-17T11:06:10.842Z,43.00
2019-02-17T11:08:37.361Z,42.70
2019-02-17T11:11:03.727Z,42.50
2019-02-17T11:13:30.236Z,42.00
2019-02-17T11:15:56.449Z,41.00
2019-02-17T11:18:22.774Z,40.70
2019-02-17T11:20:48.984Z,40.00
2019-02-17T11:23:15.280Z,39.30
2019-02-17T11:25:41.533Z,38.50
2019-02-17T11:28:07.915Z,38.20
2019-02-17T11:30:34.356Z,38.00
2019-02-17T11:33:00.690Z,37.20
2019-02-17T11:35:26.912Z,36.90
2019-02-17T11:37:53.216Z,35.90
2019-02-17T11:40:19.528Z,35.40
2019-02-17T11:42:45.802Z,35.40
2019-02-17T11:45:16.616Z,35.00
2019-02-17T11:47:42.922Z,35.60
2019-02-17T11:50:09.376Z,35.80
2019-02-17T11:52:35.695Z,34.70
2019-02-17T11:55:04.313Z,34.70
2019-02-17T11:57:30.570Z,35.10
2019-02-17T11:59:56.865Z,34.10
2019-02-17T12:02:25.321Z,33.80
2019-02-17T12:04:51.405Z,32.40
2019-02-17T12:07:17.596Z,32.10
2019-02-17T12:09:43.845Z,32.90
2019-02-17T12:12:10.063Z,32.70
2019-02-17T12:14:36.263Z,32.70
2019-02-17T12:17:02.684Z,33.20
2019-02-17T12:19:29.076Z,33.30
2019-02-17T12:22:00.168Z,32.70
2019-02-17T12:24:28.318Z,32.90
2019-02-17T12:26:59.296Z,32.70
2019-02-17T12:29:30.294Z,34.20
2019-02-17T12:31:57.836Z,33.40
2019-02-17T12:34:24.249Z,33.20
2019-02-17T12:36:50.468Z,32.80
2019-02-17T12:39:16.803Z,33.50
2019-02-17T12:41:43.227Z,33.90
2019-02-17T12:44:09.457Z,34.60
2019-02-17T12:46:35.771Z,35.30
2019-02-17T12:49:02.007Z,36.30
2019-02-17T12:51:28.278Z,37.60
2019-02-17T12:53:54.602Z,39.20
2019-02-17T12:56:20.844Z,39.10
2019-02-17T12:58:47.061Z,39.20
2019-02-17T13:01:13.658Z,40.70
2019-02-17T13:03:40.220Z,41.00
2019-02-17T13:06:06.498Z,42.10
2019-02-17T13:08:32.792Z,41.40
2019-02-17T13:10:59.085Z,41.70
2019-02-17T13:13:25.340Z,41.80
2019-02-17T13:15:51.697Z,41.20
2019-02-17T13:18:17.994Z,42.20
2019-02-17T13:20:44.347Z,41.70
2019-02-17T13:23:10.697Z,41.30
2019-02-17T13:25:38.305Z,40.60
2019-02-17T13:28:04.831Z,42.20
2019-02-17T13:30:31.136Z,41.10
2019-02-17T13:32:57.459Z,42.30
2019-02-17T13:35:23.799Z,41.80
2019-02-17T13:37:50.207Z,41.90
2019-02-17T13:40:16.627Z,42.30
2019-02-17T13:42:42.967Z,41.10
2019-02-17T13:45:13.323Z,42.00
2019-02-17T13:47:39.530Z,42.90
2019-02-17T13:50:08.383Z,41.30
2019-02-17T13:52:34.731Z,41.20
2019-02-17T13:55:00.977Z,41.50
2019-02-17T13:57:27.368Z,41.50
2019-02-17T13:59:53.588Z,41.90
2019-02-17T14:02:19.842Z,40.80
2019-02-17T14:04:46.157Z,40.70
2019-02-17T14:07:12.412Z,41.10
2019-02-17T14:09:38.624Z,41.40
2019-02-17T14:12:04.831Z,41.10
2019-02-17T14:14:31.064Z,41.80
2019-02-17T14:16:57.298Z,41.00
2019-02-17T14:19:23.727Z,41.20
2019-02-17T14:21:49.959Z,40.60
2019-02-17T14:24:16.162Z,41.00
2019-02-17T14:26:42.388Z,41.50
2019-02-17T14:29:08.609Z,41.80
2019-02-17T14:31:34.911Z,41.60
2019-02-17T14:34:01.162Z,40.80
2019-02-17T14:36:27.483Z,41.30
2019-02-17T14:38:53.691Z,41.80
2019-02-17T14:41:19.996Z,42.30
2019-02-17T14:43:46.221Z,41.40
2019-02-17T14:46:12.463Z,42.70
2019-02-17T14:48:38.660Z,41.70
2019-02-17T14:51:04.976Z,41.60
2019-02-17T14:53:31.303Z,44.20
2019-02-17T14:55:57.706Z,43.80
2019-02-17T14:58:24.050Z,43.20
2019-02-17T15:00:50.650Z,41.30
2019-02-17T15:03:17.184Z,41.10
2019-02-17T15:05:43.831Z,41.60
2019-02-17T15:08:10.264Z,41.10
2019-02-17T15:10:36.730Z,42.40
2019-02-17T15:13:03.301Z,41.20
2019-02-17T15:15:29.818Z,40.70
2019-02-17T15:17:56.095Z,41.40
2019-02-17T15:20:23.873Z,41.60
2019-02-17T15:22:50.316Z,41.10
2019-02-17T15:25:16.737Z,41.00
2019-02-17T15:27:43.032Z,42.30
2019-02-17T15:30:11.841Z,42.90
2019-02-17T15:32:38.422Z,42.20
2019-02-17T15:35:05.330Z,43.10
2019-02-17T15:37:31.826Z,43.10
2019-02-17T15:39:58.276Z,43.70
2019-02-17T15:42:24.676Z,43.70
2019-02-17T15:44:51.159Z,43.50
2019-02-17T15:47:19.263Z,42.60
2019-02-17T15:49:46.022Z,42.40
2019-02-17T15:52:12.315Z,42.00
2019-02-17T15:54:38.637Z,43.10
2019-02-17T15:57:04.875Z,42.70
2019-02-17T15:59:31.279Z,43.30
2019-02-17T16:01:57.540Z,44.20
2019-02-17T16:04:28.472Z,44.40
2019-02-17T16:06:52.035Z,45.60
2019-02-17T16:09:18.361Z,45.60
2019-02-17T16:11:44.592Z,45.70
2019-02-17T16:14:10.911Z,44.50
2019-02-17T16:16:37.151Z,45.50
2019-02-17T16:19:03.609Z,47.10
2019-02-17T16:21:29.813Z,46.00
2019-02-17T16:23:56.128Z,45.90
2019-02-17T16:26:22.580Z,47.40
2019-02-17T16:28:48.808Z,46.60
2019-02-17T16:31:15.119Z,47.60
2019-02-17T16:33:41.391Z,48.30
2019-02-17T16:36:07.710Z,48.90
2019-02-17T16:38:33.976Z,49.00
2019-02-17T16:41:00.181Z,48.20
2019-02-17T16:43:26.597Z,48.00
2019-02-17T16:45:52.799Z,47.70
2019-02-17T16:48:19.050Z,49.00
2019-02-17T16:50:45.280Z,49.20
2019-02-17T16:53:11.738Z,49.80
2019-02-17T16:55:38.072Z,50.00
2019-02-17T16:58:04.412Z,50.50
2019-02-17T17:00:30.804Z,50.50
2019-02-17T17:02:57.122Z,50.80
2019-02-17T17:05:24.165Z,51.10
2019-02-17T17:07:50.712Z,50.90
2019-02-17T17:10:17.026Z,52.00
2019-02-17T17:12:43.340Z,51.10
2019-02-17T17:15:10.036Z,51.90
2019-02-17T17:17:36.499Z,52.70
2019-02-17T17:20:06.317Z,52.60
2019-02-17T17:22:32.695Z,52.80
2019-02-17T17:24:58.979Z,52.10
2019-02-17T17:27:25.368Z,52.90
2019-02-17T17:29:51.581Z,52.30
2019-02-17T17:32:17.829Z,53.00
2019-02-17T17:34:44.176Z,53.10
2019-02-17T17:37:10.396Z,53.40
2019-02-17T17:39:36.667Z,53.60
2019-02-17T17:42:03.013Z,52.80
2019-02-17T17:44:29.362Z,53.30
2019-02-17T17:46:55.688Z,53.80
2019-02-17T17:49:21.980Z,53.90
2019-02-17T17:51:48.279Z,53.20
2019-02-17T17:54:14.633Z,53.90
2019-02-17T17:56:41.014Z,53.70
2019-02-17T17:59:07.343Z,54.00
2019-02-17T18:01:33.558Z,54.30
2019-02-17T18:03:59.832Z,53.90
2019-02-17T18:06:26.160Z,53.60
2019-02-17T18:08:52.350Z,53.80
2019-02-17T18:11:18.745Z,54.30
2019-02-17T18:13:45.010Z,54.10
2019-02-17T18:16:11.234Z,54.50
2019-02-17T18:18:37.466Z,54.70
2019-02-17T18:21:04.001Z,55.10
2019-02-17T18:23:30.280Z,55.40
2019-02-17T18:25:56.569Z,55.50
2019-02-17T18:28:22.910Z,55.90
2019-02-17T18:30:49.149Z,56.30
2019-02-17T18:33:15.499Z,56.40
2019-02-17T18:35:41.862Z,56.60
2019-02-17T18:38:08.117Z,56.80
2019-02-17T18:40:44.483Z,57.10
2019-02-17T18:43:02.716Z,57.10
2019-02-17T18:45:29.039Z,57.30
2019-02-17T18:47:55.248Z,57.10
2019-02-17T18:50:22.102Z,56.30
2019-02-17T18:52:48.460Z,56.50
2019-02-17T18:55:14.768Z,57.00
2019-02-17T18:57:49.385Z,57.10
2019-02-17T19:00:20.894Z,57.30
2019-02-17T19:02:47.217Z,57.90
2019-02-17T19:05:13.752Z,57.80
2019-02-17T19:07:40.175Z,58.10
2019-02-17T19:10:11.926Z,58.50
2019-02-17T19:12:38.199Z,58.80
2019-02-17T19:15:07.870Z,59.00
2019-02-17T19:17:34.236Z,59.10
2019-02-17T19:20:00.673Z,60.20
2019-02-17T19:22:27.106Z,59.80
2019-02-17T19:24:53.372Z,60.40
2019-02-17T19:27:19.740Z,61.60
2019-02-17T19:29:46.061Z,61.20
2019-02-17T19:32:12.332Z,62.40
2019-02-17T19:34:38.689Z,62.80
2019-02-17T19:37:05.037Z,64.10
2019-02-17T19:39:31.383Z,64.30
2019-02-17T19:41:57.613Z,64.50
2019-02-17T19:44:23.992Z,65.10
2019-02-17T19:46:50.385Z,66.00
2019-02-17T19:49:16.774Z,66.60
2019-02-17T19:51:43.113Z,67.60
2019-02-17T19:54:09.554Z,67.90
2019-02-17T19:56:35.913Z,67.90
2019-02-17T19:59:02.297Z,68.10
2019-02-17T20:01:28.731Z,69.10
2019-02-17T20:03:59.943Z,69.30
2019-02-17T20:06:26.323Z,69.60
2019-02-17T20:08:52.768Z,70.70
2019-02-17T20:11:19.079Z,70.60
2019-02-17T20:13:45.454Z,71.40
2019-02-17T20:16:11.896Z,71.10
2019-02-17T20:18:38.212Z,71.50
2019-02-17T20:21:04.564Z,72.20
2019-02-17T20:23:30.894Z,72.00
2019-02-17T20:25:57.981Z,72.70
2019-02-17T20:28:32.640Z,73.30
2019-02-17T20:30:52.544Z,74.00
2019-02-17T20:33:19.084Z,74.60
2019-02-17T20:35:45.533Z,75.70
2019-02-17T20:38:11.788Z,75.60
2019-02-17T20:40:38.205Z,77.70
2019-02-17T20:43:04.563Z,77.10
2019-02-17T20:45:30.870Z,77.50
2019-02-17T20:47:57.287Z,78.20
2019-02-17T20:50:23.627Z,79.30
2019-02-17T20:52:50.040Z,79.00
2019-02-17T20:55:16.570Z,79.40
2019-02-17T20:57:42.927Z,80.40
2019-02-17T21:00:13.915Z,81.50
2019-02-17T21:02:40.213Z,82.30
2019-02-17T21:05:08.052Z,83.00
2019-02-17T21:07:34.379Z,83.50
2019-02-17T21:10:00.595Z,83.00
2019-02-17T21:12:27.185Z,82.90
2019-02-17T21:14:53.437Z,83.60
2019-02-17T21:17:19.876Z,83.60
2019-02-17T21:19:46.252Z,84.30
2019-02-17T21:22:12.559Z,84.40
2019-02-17T21:24:40.087Z,85.30
2019-02-17T21:27:06.307Z,84.90
2019-02-17T21:29:32.843Z,85.00
2019-02-17T21:31:59.072Z,84.70
2019-02-17T21:34:25.350Z,86.40
2019-02-17T21:36:51.694Z,86.40
2019-02-17T21:39:17.909Z,86.80
2019-02-17T21:41:44.273Z,87.20
2019-02-17T21:44:10.502Z,87.50
2019-02-17T21:46:36.715Z,87.80
2019-02-17T21:49:03.015Z,87.30
2019-02-17T21:51:29.288Z,86.60
2019-02-17T21:53:55.531Z,87.60
2019-02-17T21:56:21.808Z,88.20
2019-02-17T21:58:49.507Z,87.10
2019-02-17T22:01:15.968Z,88.50
2019-02-17T22:03:42.203Z,89.00
2019-02-17T22:06:08.533Z,90.00
2019-02-17T22:08:34.916Z,89.80
2019-02-17T22:11:01.347Z,90.30
2019-02-17T22:13:27.767Z,90.80
2019-02-17T22:15:53.962Z,90.70
2019-02-17T22:18:20.287Z,90.70
2019-02-17T22:20:46.484Z,91.00
2019-02-17T22:23:12.804Z,91.00
2019-02-17T22:25:39.168Z,91.20
2019-02-17T22:28:05.541Z,91.80
2019-02-17T22:30:31.781Z,91.70
2019-02-17T22:32:58.084Z,91.50
2019-02-17T22:35:24.344Z,92.00
2019-02-17T22:37:50.584Z,92.10
2019-02-17T22:40:16.794Z,92.50
2019-02-17T22:42:43.158Z,92.60
2019-02-17T22:45:10.464Z,92.30
2019-02-17T22:47:36.800Z,91.70
2019-02-17T22:50:07.539Z,92.00
2019-02-17T22:52:33.952Z,91.60
2019-02-17T22:55:00.311Z,91.70
2019-02-17T22:57:26.495Z,92.10
2019-02-17T22:59:52.747Z,92.10
2019-02-17T23:02:19.401Z,91.60
2019-02-17T23:04:45.800Z,91.40
2019-02-17T23:07:12.110Z,91.80
2019-02-17T23:09:38.453Z,92.00
2019-02-17T23:12:04.995Z,92.20
2019-02-17T23:14:31.299Z,92.40
2019-02-17T23:16:57.528Z,92.20
2019-02-17T23:19:23.718Z,92.70
2019-02-17T23:21:50.027Z,92.80
2019-02-17T23:24:16.946Z,92.80
2019-02-17T23:26:43.277Z,92.90
2019-02-17T23:29:09.484Z,92.80
2019-02-17T23:31:35.779Z,92.90
2019-02-17T23:34:02.004Z,92.60
2019-02-17T23:36:28.354Z,91.80
2019-02-17T23:38:54.560Z,92.40
2019-02-17T23:41:20.763Z,92.50
2019-02-17T23:43:46.959Z,93.10
2019-02-17T23:46:13.162Z,93.30
2019-02-17T23:48:39.377Z,93.20
2019-02-17T23:51:05.695Z,93.30
2019-02-17T23:53:32.024Z,93.10
2019-02-17T23:55:58.215Z,93.40
2019-02-17T23:58:24.452Z,93.40
